Main page
METAR-TAF:

METAR-TAF

Airports :

Wattisham, England

RAF Wattisham

latitude: 52-07N, longitude: 000-58E, elevation: 87 m

Current weather observation

The report was made 19 minutes ago, at 14:50 UTC
Wind 6 kt from the West
Temperature 15°C
Humidity 63%
Pressure 1021 hPa
Visibility 10 km or more
Scattered clouds at a height of 3300 ft

METAR: EGUW 191450Z 26006KT 9999 SCT033 15/08 Q1021 BLU NOSIG

Time: 16:09 (15:09 UTC)

Forecast

The report was made 1 hour and 42 minutes ago, at 13:27 UTC
Forecast valid from 19 at 15 UTC to 19 at 24 UTC
Wind 6 kt from the West
Visibility 10 km or more
Scattered clouds at a height of 2500 ft

TAF: EGUW 191327Z 1915/1924 28006KT 9999 SCT025

Weather observations and forecasts of more than 4000 airports (METAR and TAF reports).

The available stations are represented by yellow and red dots on the map.

Hover mouse over dot to see the name of the station.

Then click to see weather observations and forecasts.

To change the map : click on the green buttons with a black cross to zoom in, on the green button with a dash to zoom out, or on the green arrows for adjacent maps.


METAR-TAF: